Terminal Aerodrome Forecast
Issued by NWS Huntsville, AL

Home | Current Version | Previous Version | Text Only | Print | Product List | Glossary On
Versions: 1 2 3 4 5 6 7 8 9 10 11 12 13 14 15 16 17 18 19 20 21 22 23 24 25 26 27 28 29 30
000
FTUS44 KHUN 230200 AAA
TAFMSL
TAF AMD
KMSL 230200Z 2302/2324 15007KT 6SM -SHRA BKN050
      TEMPO 2302/2306 3SM +SHRA BKN015 OVC025
     FM230800 25008KT P6SM VCSH BKN015
     FM231100 28010KT P6SM OVC015
     FM231800 29010KT P6SM BKN035=

USA.gov is the U.S. government's official web portal to all federal, state and local government web resources and services.